• Join FlightAware (Why Join?)
  • Login
  • US Flag 
12:31AM EST


 

Airport Tracker/Info


-or-


 

Live Flight TrackerFlight Track Log ✈ N572CT ✈ 23-Jun-2014 ✈ KLYH - KOWD

Flight Track Log - Related Links

Times and Time Zones

All times are in EDT time to prevent confusion due to time zone crossing. See the N572CT flight status page for this flight to view local times or setup timezone preferences in your user account.

Time Position Orientation Groundspeed Altitude Reporting Facility
EDT Latitude Longitude Course Direction KTS MPH feet Rate Location/Type
09:30AM 37.5833 -79.1467 North  Level FlightAware Approximate
09:31AM 37.6279 -79.1378 North  Level FlightAware Approximate
09:32AM 37.6724 -79.1289 North  Level FlightAware Approximate
09:33AM 37.7169 -79.1200 North  Level FlightAware Approximate
09:34AM 37.7617 -79.1138 North  Level FlightAware Approximate
09:35AM 37.8066 -79.1093 North  Level FlightAware Approximate
09:36AM 37.8516 -79.1049 North  Level FlightAware Approximate
09:37AM 37.8965 -79.1003 North  Level FlightAware Approximate
09:37AM 37.6667 -79.1833 32° Northeast 159 183 7,000  Level Potomac TRACON
09:38AM 37.9353 -79.0722 32° Northeast  Level FlightAware Approximate
09:38AM 37.7167 -79.1667 15° North 158 182 7,000  Level Potomac TRACON
09:39AM 37.9737 -79.0420 32° Northeast  Level FlightAware Approximate
09:39AM 37.7500 -79.1500 22° Northeast 158 182 7,000  Level Potomac TRACON
09:40AM 38.0119 -79.0118 32° Northeast  Level FlightAware Approximate
09:40AM 37.7833 -79.1333 22° Northeast 158 182 7,000  Level Potomac TRACON
09:41AM 38.0502 -78.9816 32° Northeast  Level FlightAware Approximate
09:41AM 37.8333 -79.1333 360° North 162 186 7,000  Level Potomac TRACON
09:42AM 38.0885 -78.9513 32° Northeast  Level FlightAware Approximate
09:42AM 37.8833 -79.1167 15° North 164 189 7,000  Level Potomac TRACON
09:43AM 37.9167 -79.1000 22° Northeast 166 191 7,000  Level Potomac TRACON
09:44AM 37.9667 -79.0667 28° Northeast 172 198 7,000  Level Potomac TRACON
09:45AM 38.0000 -79.0333 38° Northeast 162 186 7,000  Level Potomac TRACON
09:46AM 38.0333 -79.0000 38° Northeast 174 200 7,000  Level Potomac TRACON
09:47AM 38.0833 -78.9833 15° North 160 184 7,000  Level Potomac TRACON
09:47AM 38.1167 -78.9500 38° Northeast 162 186 7,000  Level Potomac TRACON
09:48AM 38.1500 -78.9167 38° Northeast 161 185 7,000  Level Potomac TRACON
09:50AM 38.2203 -78.8717 27° Northeast 162 186 7,000  Level Washington Center
09:51AM 38.2606 -78.8444 28° Northeast 162 186 7,000  Level Washington Center
09:52AM 38.2928 -78.8139 37° Northeast 162 186 7,000  Level Washington Center
09:53AM 38.3331 -78.7839 30° Northeast 162 186 7,000  Level Washington Center
09:54AM 38.3694 -78.7536 33° Northeast 162 186 7,000  Level Washington Center
09:55AM 38.4078 -78.7236 32° Northeast 162 186 7,000  Level Washington Center
09:56AM 38.4461 -78.6933 32° Northeast 162 186 7,000  Level Washington Center
09:57AM 38.4844 -78.6606 34° Northeast 162 186 7,000  Level Washington Center
09:58AM 38.5206 -78.6300 34° Northeast 162 186 7,000  Level Washington Center
09:59AM 38.5611 -78.5972 32° Northeast 162 186 7,000  Level Washington Center
10:00AM 38.5994 -78.5669 32° Northeast 162 186 7,000  Level Washington Center
10:01AM 38.6397 -78.5367 30° Northeast 162 186 7,000  Level Washington Center
10:02AM 38.6758 -78.5036 36° Northeast 162 186 7,000  Level Washington Center
10:03AM 38.7144 -78.4678 36° Northeast 162 186 7,000  Level Washington Center
10:04AM 38.7528 -78.4319 36° Northeast 167 192 7,000  Level Washington Center
10:05AM 38.7889 -78.3989 36° Northeast 167 192 7,000  Level Washington Center
10:06AM 38.8272 -78.3631 36° Northeast 172 198 7,000  Level Washington Center
10:07AM 38.8656 -78.3269 36° Northeast 172 198 7,000  Level Washington Center
10:09AM 38.9500 -78.2500 35° Northeast 170 196 7,000  Level Potomac TRACON
10:10AM 38.9833 -78.2167 38° Northeast 170 196 7,000  Level Potomac TRACON
10:11AM 39.0333 -78.1833 27° Northeast 170 196 7,000  Level Potomac TRACON
10:12AM 39.0667 -78.1500 38° Northeast 170 196 7,000  Level Potomac TRACON
10:13AM 39.1000 -78.1167 38° Northeast 171 197 7,000  Level Potomac TRACON
10:14AM 39.1333 -78.0833 38° Northeast 172 198 7,000  Level Potomac TRACON
10:15AM 39.1833 -78.0333 38° Northeast 172 198 7,000  Level Potomac TRACON
10:16AM 39.2167 -78.0000 38° Northeast 169 194 7,000  Level Potomac TRACON
10:17AM 39.2667 -77.9667 27° Northeast 169 194 7,000  Level Potomac TRACON
10:18AM 39.3000 -77.9333 38° Northeast 169 194 7,000  Level Potomac TRACON
10:20AM 39.3333 -77.8833 49° Northeast 171 197 7,000  Level Potomac TRACON
10:21AM 39.3833 -77.8500 27° Northeast 171 197 7,000  Level Potomac TRACON
10:22AM 39.3833 -77.8000 90° East 167 192 7,000  Level Potomac TRACON
10:23AM 39.4000 -77.7333 72° East 170 196 7,000  Level Potomac TRACON
10:25AM 39.4333 -77.6333 67° East 173 199 7,000  Level Potomac TRACON
10:26AM 39.4833 -77.6000 27° Northeast 170 196 7,000  Level Potomac TRACON
10:27AM 39.5333 -77.5667 27° Northeast 172 198 7,000  Level Potomac TRACON
10:28AM 39.5667 -77.5333 38° Northeast 174 200 7,000  Level Potomac TRACON
10:29AM 39.6167 -77.5167 14° North 176 203 7,000  Level Potomac TRACON
10:30AM 39.6500 -77.4833 38° Northeast 173 199 7,000  Level Potomac TRACON
10:55AM 40.3144 -76.1853 36° Northeast 167 192 7,000  Level New York Center
10:56AM 40.2050 -76.3131 48° Northeast  Level FlightAware Approximate
10:56AM 40.3483 -76.1253 53° Northeast 165 190 7,000  Level New York Center
10:57AM 40.2338 -76.2707 48° Northeast  Level FlightAware Approximate
10:57AM 40.3758 -76.0728 55° Northeast 166 191 7,000  Level New York Center
10:58AM 40.2627 -76.2282 48° Northeast  Level FlightAware Approximate
10:59AM 40.2915 -76.1858 48° Northeast  Level FlightAware Approximate
10:59AM 40.4164 -76.0050 52° Northeast 169 194 7,000  Level New York Center
11:00AM 40.3203 -76.1433 48° Northeast  Level FlightAware Approximate
11:00AM 40.4433 -75.9608 51° Northeast 169 194 7,000  Level New York Center
11:01AM 40.3554 -76.1099 36° Northeast  Level FlightAware Approximate
11:01AM 40.4703 -75.9136 53° Northeast 169 194 7,000  Level New York Center
11:02AM 40.4997 -75.8611 54° Northeast 170 196 7,000  Level New York Center
11:03AM 40.5294 -75.8033 56° Northeast 168 193 7,000  Level New York Center
11:03AM 40.5472 -75.7772 48° Northeast 168 193 7,000  Level New York Center
11:05AM 40.5764 -75.7247 54° Northeast 169 194 7,000  Level New York Center
11:05AM 40.6036 -75.6747 54° Northeast 170 196 7,000  Level New York Center
11:07AM 40.6372 -75.6169 53° Northeast 170 196 7,000  Level New York Center
11:08AM 40.6597 -75.5747 55° Northeast 170 196 7,000 -216 Level New York Center
11:08AM 40.6867 -75.5247 55° Northeast 181 208 6,600 -475 Descending New York Center
11:10AM 40.7314 -75.4483 52° Northeast 186 214 5,900 -480 Descending New York Center
11:11AM 40.7731 -75.3992 42° Northeast 188 216 5,400 -425 Descending New York Center
11:12AM 40.8103 -75.3525 43° Northeast 183 211 5,000 -250 Descending New York Center
11:13AM 40.8300 -75.3264 45° Northeast 177 204 5,000  Level New York Center
11:14AM 40.8672 -75.2822 42° Northeast 166 191 5,000  Level New York Center
11:15AM 40.8978 -75.2403 46° Northeast 166 191 5,000  Level New York Center
11:16AM 40.9372 -75.1933 42° Northeast 168 193 5,000  Level New York Center
11:17AM 40.9722 -75.1489 44° Northeast 168 193 5,000  Level New York Center
11:18AM 41.0050 -75.1069 44° Northeast 168 193 5,000  Level New York Center
11:19AM 41.0400 -75.0625 44° Northeast 167 192 5,000  Level New York Center
11:20AM 41.0706 -75.0206 46° Northeast 167 192 5,000  Level New York Center
11:21AM 41.1075 -74.9786 41° Northeast 167 192 5,000  Level New York Center
11:23AM 41.1833 -74.8833 43° Northeast 162 186 5,000  Level New York TRACON
11:24AM 41.2167 -74.8333 48° Northeast 165 190 5,000  Level New York TRACON
11:25AM 41.2500 -74.7833 48° Northeast 166 191 5,000  Level New York TRACON
11:26AM 41.2833 -74.7500 37° Northeast 167 192 5,000  Level New York TRACON
11:27AM 41.3167 -74.7167 37° Northeast 165 190 5,000  Level New York TRACON
11:28AM 41.3500 -74.6667 48° Northeast 165 190 5,000  Level New York TRACON
11:29AM 41.3833 -74.6333 37° Northeast 160 184 5,000  Level New York TRACON
11:30AM 41.4167 -74.5833 48° Northeast 162 186 5,000  Level New York TRACON
11:31AM 41.4333 -74.5333 66° East 162 186 5,000  Level New York TRACON
11:32AM 41.4500 -74.4833 66° East 165 190 5,000  Level New York TRACON
11:33AM 41.4667 -74.4167 72° East 166 191 5,000  Level New York TRACON
11:34AM 41.5000 -74.3667 48° Northeast 171 197 5,000  Level New York TRACON
11:35AM 41.5167 -74.3000 72° East 171 197 5,000  Level New York TRACON
11:36AM 41.5333 -74.2500 66° East 168 193 5,000  Level New York TRACON
11:37AM 41.5500 -74.2000 66° East 167 192 5,000  Level New York TRACON
11:38AM 41.5636 -74.1708 58° Northeast 169 194 5,000  Level Boston Center
11:39AM 41.5839 -74.1158 64° Northeast 168 193 5,000  Level Boston Center
11:40AM 41.6061 -74.0564 63° Northeast 167 192 5,000  Level Boston Center
11:41AM 41.6261 -74.0011 64° Northeast 167 192 5,000  Level Boston Center
11:42AM 41.6464 -73.9458 64° Northeast 167 192 5,000  Level Boston Center
11:43AM 41.6675 -73.8869 64° Northeast 166 191 5,000  Level Boston Center
11:44AM 41.6872 -73.8328 64° Northeast 165 190 5,000  Level Boston Center
11:45AM 41.7083 -73.7739 64° Northeast 165 190 5,000  Level Boston Center
11:46AM 41.7281 -73.7183 65° Northeast 165 190 5,000  Level Boston Center
11:47AM 41.7475 -73.6642 64° Northeast 165 190 5,000  Level Boston Center
11:48AM 41.7686 -73.6067 64° Northeast 163 188 5,000  Level Boston Center
11:49AM 41.7633 -73.5486 97° East 158 182 5,000  Level Boston Center
11:51AM 41.7500 -73.4167 98° East 161 185 5,000  Level New York TRACON
11:52AM 41.7500 -73.3500 90° East 156 180 5,000  Level New York TRACON
11:53AM 41.7333 -73.3000 114° Southeast 161 185 5,000  Level New York TRACON
11:54AM 41.7333 -73.2333 90° East 159 183 5,000  Level New York TRACON
11:55AM 41.7167 -73.1833 114° Southeast 158 182 5,000  Level New York TRACON
11:56AM 41.7144 -73.1497 95° East 157 181 5,000  Level Boston Center
11:56AM 41.7142 -73.1306 91° East 158 182 5,000  Level Boston Center
11:57AM 41.7092 -73.0903 99° East 160 184 5,000  Level Boston Center
11:57AM 41.7067 -73.0678 98° East 158 182 5,000  Level Boston Center
11:58AM 41.7017 -73.0328 101° East 157 181 5,000  Level Boston Center
11:58AM 41.6997 -73.0106 97° East 158 182 5,000  Level Boston Center
11:59AM 41.6939 -72.9753 102° East 158 182 5,000  Level Boston Center
11:59AM 41.6914 -72.9478 97° East 158 182 5,000  Level Boston Center
12:00PM 41.6872 -72.9122 99° East 158 182 5,000  Level Boston Center
12:00PM 41.6847 -72.8906 99° East 158 182 5,000  Level Boston Center
12:01PM 41.6803 -72.8406 97° East 158 182 5,000  Level Boston Center
12:01PM 41.6772 -72.8322 116° Southeast 158 182 5,000  Level Boston Center
12:02PM 41.6728 -72.7919 98° East 163 188 5,000  Level Boston Center
12:02PM 41.6692 -72.7697 102° East 158 182 5,000  Level Boston Center
12:03PM 41.6644 -72.7369 101° East 158 182 5,000  Level Boston Center
12:03PM 41.6619 -72.7122 98° East 158 182 5,000  Level Boston Center
12:04PM 41.6594 -72.6864 97° East 157 181 5,000  Level Boston Center
12:04PM 41.6544 -72.6503 100° East 158 182 5,000  Level Boston Center
12:05PM 41.6517 -72.6289 100° East 157 181 5,000  Level Boston Center
12:05PM 41.6478 -72.5928 98° East 158 182 5,000  Level Boston Center
12:06PM 41.6447 -72.5661 99° East 158 182 5,000  Level Boston Center
12:06PM 41.6436 -72.5300 92° East 158 182 5,000  Level Boston Center
12:07PM 41.6494 -72.5103 68° East 151 174 5,000  Level Boston Center
12:07PM 41.6589 -72.4764 70° East 156 180 5,000  Level Boston Center
12:08PM 41.6617 -72.4600 77° East 158 182 5,000  Level Boston Center
12:08PM 41.6714 -72.4156 74° East 156 180 5,000  Level Boston Center
12:09PM 41.6747 -72.4042 69° East 157 181 5,000  Level Boston Center
12:10PM 41.6844 -72.3597 74° East 156 180 5,000  Level Boston Center
12:10PM 41.6861 -72.3478 79° East 158 182 5,000  Level Boston Center
12:11PM 41.6975 -72.3033 71° East 157 181 5,000  Level Boston Center
12:11PM 41.6992 -72.2919 79° East 159 183 5,000  Level Boston Center
12:12PM 41.7108 -72.2422 73° East 157 181 5,000  Level Boston Center
12:12PM 41.7144 -72.2253 74° East 158 182 5,000  Level Boston Center
12:13PM 41.7236 -72.1858 73° East 158 182 5,000  Level Boston Center
12:13PM 41.7275 -72.1694 72° East 158 182 5,000  Level Boston Center
12:14PM 41.7381 -72.1275 71° East 158 182 5,000  Level Boston Center
12:14PM 41.7386 -72.1131 87° East 159 183 5,000  Level Boston Center
12:15PM 41.7489 -72.0700 72° East 158 182 5,000  Level Boston Center
12:15PM 41.7517 -72.0633 61° Northeast 156 180 5,000  Level Boston Center
12:16PM 41.7617 -72.0150 74° East 156 180 5,000  Level Boston Center
12:17PM 41.7742 -71.9561 74° East 163 188 5,000  Level Boston Center
12:18PM 41.7858 -71.8997 74° East 160 184 5,000 -141 Level Boston Center
12:19PM 41.8039 -71.8342 70° East 170 196 4,700 -328 Descending Boston Center
12:20PM 41.8278 -71.7822 58° Northeast 165 190 4,300 -336 Descending Boston Center
12:21PM 41.8514 -71.7283 60° Northeast 166 191 4,000 -290 Descending Boston Center
12:22PM 41.8764 -71.6722 59° Northeast 165 190 3,700 -293 Descending Boston Center
12:23PM 41.8986 -71.6175 61° Northeast 158 182 3,400 -254 Descending Boston Center
12:24PM 41.9206 -71.5736 56° Northeast 159 183 3,200 -207 Descending Boston Center
12:25PM 41.9442 -71.5214 59° Northeast 156 180 3,000 -94 Descending Boston Center
12:26PM 41.9728 -71.4769 49° Northeast 147 169 3,000  Level Boston Center
12:27PM 41.9975 -71.4397 48° Northeast 150 173 3,000  Level Boston Center
12:28PM 42.0275 -71.3986 46° Northeast 152 175 3,000 -229 Level Boston Center
12:29PM 42.0658 -71.3467 45° Northeast 153 176 2,500 -448 Descending Boston Center
12:30PM 42.0964 -71.3047 46° Northeast 155 178 2,000 -484 Descending Boston Center
12:31PM 42.1253 -71.2633 47° Northeast 154 177 1,500 -488 Descending Boston Center
12:32PM 42.1544 -71.2231 46° Northeast 145 167 1,000 -145 Descending Boston Center
12:33PM 42.1872 -71.2383 341° North 128 147 1,200 97 Climbing Boston Center
12:34PM 42.2133 -71.2261 19° North 100 115 1,200 -242 Level Boston Center
12:35PM 42.2183 -71.1933 78° East 105 121 700 -339 Descending Boston Center
12:36PM 42.2078 -71.1661 118° Southeast 100 115 500 -190 Descending Boston Center